Time;durP1;ratioP1;P1;durP2;ratioP2;P2;SDS_P1;SDS_P2;PMS_P1;PMS_P2;Temp;Humidity;BMP_temperature;BMP_pressure;BME280_temperature;BME280_humidity;BME280_pressure;Samples;Min_cycle;Max_cycle;Signal;HPM_P1;HPM_P2
2024/03/12 00:01:10;;;;;;;20.55;11.18;;;;;;;;;;5005191;28;20033;-41
2024/03/12 00:03:42;;;;;;;23.05;11.75;;;;;;;;;;5005118;28;20025;-43
2024/03/12 00:06:09;;;;;;;29.02;12.73;;;;;;;;;;5005200;28;20045;-43
2024/03/12 00:08:39;;;;;;;18.80;11.32;;;;;;;;;;5004904;28;20026;-44
2024/03/12 00:11:06;;;;;;;19.77;11.75;;;;;;;;;;5005054;28;20053;-41
2024/03/12 00:13:33;;;;;;;21.92;11.73;;;;;;;;;;5004933;28;20077;-40
2024/03/12 00:16:00;;;;;;;20.70;11.30;;;;;;;;;;5004989;28;20335;-36
2024/03/12 00:18:27;;;;;;;21.90;11.75;;;;;;;;;;5004856;28;20028;-38
2024/03/12 00:20:53;;;;;;;22.33;12.10;;;;;;;;;;5004987;28;20026;-42
2024/03/12 00:23:22;;;;;;;19.52;11.38;;;;;;;;;;5004663;28;20315;-38
2024/03/12 00:25:48;;;;;;;20.88;11.68;;;;;;;;;;5004722;28;20315;-39
2024/03/12 00:28:16;;;;;;;65.65;13.05;;;;;;;;;;5004884;28;20026;-41
2024/03/12 00:30:42;;;;;;;43.10;13.68;;;;;;;;;;5004373;28;20029;-36
2024/03/12 00:33:10;;;;;;;24.25;11.85;;;;;;;;;;5004740;28;20041;-38
2024/03/12 00:35:38;;;;;;;22.73;11.23;;;;;;;;;;5004492;28;20026;-42
2024/03/12 00:38:05;;;;;;;26.05;12.07;;;;;;;;;;5004335;28;20018;-34
2024/03/12 00:40:36;;;;;;;23.00;10.85;;;;;;;;;;5004144;28;20042;-36
2024/03/12 00:43:05;;;;;;;22.95;11.10;;;;;;;;;;5004355;28;20085;-36
2024/03/12 00:45:38;;;;;;;20.58;11.52;;;;;;;;;;5004165;28;20294;-38
2024/03/12 00:48:05;;;;;;;18.17;10.95;;;;;;;;;;5004665;28;20026;-44
2024/03/12 00:50:33;;;;;;;16.77;10.88;;;;;;;;;;5004114;28;20375;-42
2024/03/12 00:53:02;;;;;;;24.30;11.68;;;;;;;;;;5004500;28;20045;-36
2024/03/12 00:55:29;;;;;;;37.15;12.43;;;;;;;;;;5004282;28;20030;-38
2024/03/12 00:57:57;;;;;;;30.23;11.85;;;;;;;;;;5004334;28;20137;-43
2024/03/12 01:00:33;;;;;;;21.50;11.50;;;;;;;;;;5004320;28;20066;-37
2024/03/12 01:03:01;;;;;;;22.30;11.65;;;;;;;;;;5004256;28;20030;-41
2024/03/12 01:05:30;;;;;;;23.48;11.65;;;;;;;;;;5004197;28;20117;-40
2024/03/12 01:08:01;;;;;;;22.55;11.68;;;;;;;;;;5004275;28;20049;-43
2024/03/12 01:10:29;;;;;;;22.35;11.70;;;;;;;;;;5004187;28;20018;-38
2024/03/12 01:12:56;;;;;;;17.75;10.98;;;;;;;;;;5004574;28;20030;-39
2024/03/12 01:15:26;;;;;;;28.13;12.13;;;;;;;;;;5004204;28;20037;-40
2024/03/12 01:17:54;;;;;;;19.52;10.73;;;;;;;;;;5004518;28;20046;-39
2024/03/12 01:20:21;;;;;;;20.85;11.27;;;;;;;;;;5004118;28;20026;-33
2024/03/12 01:22:50;;;;;;;27.20;11.25;;;;;;;;;;5004631;28;20047;-36
2024/03/12 01:25:17;;;;;;;38.80;13.35;;;;;;;;;;5003917;28;20345;-46
2024/03/12 01:27:43;;;;;;;67.30;14.68;;;;;;;;;;5003952;28;20034;-41
2024/03/12 01:30:14;;;;;;;31.77;12.25;;;;;;;;;;5003919;28;20133;-38
2024/03/12 01:32:41;;;;;;;24.15;12.23;;;;;;;;;;5003753;28;20214;-42
2024/03/12 01:35:13;;;;;;;26.35;11.65;;;;;;;;;;5003799;28;20030;-40
2024/03/12 01:37:41;;;;;;;21.52;12.25;;;;;;;;;;5004374;28;20026;-40
2024/03/12 01:40:19;;;;;;;27.85;12.23;;;;;;;;;;5003545;28;20056;-42
2024/03/12 01:42:48;;;;;;;21.52;11.60;;;;;;;;;;5004232;28;20213;-47
2024/03/12 01:45:16;;;;;;;20.10;11.93;;;;;;;;;;5003697;28;20064;-45
2024/03/12 01:47:45;;;;;;;22.85;11.85;;;;;;;;;;5004318;28;20045;-39
2024/03/12 01:50:12;;;;;;;23.00;12.15;;;;;;;;;;5004034;28;20022;-41
2024/03/12 01:52:39;;;;;;;20.42;11.85;;;;;;;;;;5004025;28;20073;-40
2024/03/12 01:55:06;;;;;;;20.17;11.40;;;;;;;;;;5003753;28;20034;-37
2024/03/12 01:57:32;;;;;;;20.40;11.98;;;;;;;;;;4986850;28;20245;-36
2024/03/12 02:00:00;;;;;;;21.80;11.18;;;;;;;;;;5003490;28;20018;-42
2024/03/12 02:02:27;;;;;;;21.27;11.68;;;;;;;;;;5004114;28;20045;-41
2024/03/12 02:04:53;;;;;;;22.08;12.40;;;;;;;;;;5003616;28;20022;-41
2024/03/12 02:07:20;;;;;;;25.27;12.10;;;;;;;;;;5003996;28;20045;-36
2024/03/12 02:09:47;;;;;;;19.73;11.75;;;;;;;;;;5005764;28;20242;-40
2024/03/12 02:12:13;;;;;;;17.92;11.27;;;;;;;;;;4989829;28;20033;-41
2024/03/12 02:14:40;;;;;;;19.83;12.23;;;;;;;;;;5006982;28;20026;-37
2024/03/12 02:17:06;;;;;;;20.80;12.35;;;;;;;;;;5007291;28;20072;-42
2024/03/12 02:19:33;;;;;;;18.73;11.65;;;;;;;;;;5007035;28;20202;-36
2024/03/12 02:22:00;;;;;;;17.38;11.85;;;;;;;;;;5007269;28;20030;-41
2024/03/12 02:24:28;;;;;;;16.67;10.68;;;;;;;;;;5006801;28;20020;-40
2024/03/12 02:26:55;;;;;;;19.65;11.18;;;;;;;;;;5007149;28;20030;-38
2024/03/12 02:29:21;;;;;;;22.85;12.30;;;;;;;;;;5006857;28;20030;-42
2024/03/12 02:31:48;;;;;;;20.65;12.45;;;;;;;;;;5007088;28;20157;-40
2024/03/12 02:34:15;;;;;;;20.05;12.10;;;;;;;;;;5006878;28;20022;-45
2024/03/12 02:36:41;;;;;;;20.65;12.32;;;;;;;;;;5007155;28;20053;-43
2024/03/12 02:39:08;;;;;;;17.95;11.52;;;;;;;;;;5006713;28;20026;-47
2024/03/12 02:41:35;;;;;;;22.70;12.95;;;;;;;;;;5006914;28;20043;-45
2024/03/12 02:44:02;;;;;;;20.27;12.30;;;;;;;;;;5006699;28;20018;-49
2024/03/12 02:46:28;;;;;;;17.70;12.00;;;;;;;;;;5006689;28;20026;-42
2024/03/12 02:48:55;;;;;;;15.68;12.88;;;;;;;;;;5006615;28;20025;-45
2024/03/12 02:51:23;;;;;;;18.08;12.10;;;;;;;;;;5006565;28;20069;-44
2024/03/12 02:53:50;;;;;;;15.77;12.00;;;;;;;;;;5006271;28;20082;-46
2024/03/12 02:56:16;;;;;;;19.60;12.57;;;;;;;;;;5006466;28;20037;-52
2024/03/12 02:58:43;;;;;;;21.23;12.98;;;;;;;;;;5006449;28;20105;-47
2024/03/12 03:01:10;;;;;;;18.25;12.35;;;;;;;;;;5006332;28;20024;-48
2024/03/12 03:03:36;;;;;;;17.48;12.10;;;;;;;;;;5006305;28;20065;-51
2024/03/12 03:06:03;;;;;;;16.67;12.18;;;;;;;;;;5006437;28;20030;-44
2024/03/12 03:08:31;;;;;;;18.35;12.93;;;;;;;;;;5006123;28;20045;-47
2024/03/12 03:10:57;;;;;;;19.63;13.38;;;;;;;;;;5006293;28;20306;-44
2024/03/12 03:13:25;;;;;;;15.68;12.43;;;;;;;;;;5006091;28;20025;-52
2024/03/12 03:15:51;;;;;;;17.58;12.25;;;;;;;;;;5005872;28;20042;-48
2024/03/12 03:18:18;;;;;;;16.75;12.52;;;;;;;;;;5006129;28;20022;-43
2024/03/12 03:20:45;;;;;;;18.95;12.43;;;;;;;;;;5005650;28;20022;-42
2024/03/12 03:23:11;;;;;;;15.40;12.85;;;;;;;;;;5005947;28;20082;-43
2024/03/12 03:25:38;;;;;;;20.95;13.40;;;;;;;;;;5005882;28;20037;-51
2024/03/12 03:28:04;;;;;;;16.58;12.80;;;;;;;;;;5006139;28;20094;-42
2024/03/12 03:30:31;;;;;;;20.50;13.55;;;;;;;;;;5005760;28;20030;-44
2024/03/12 03:32:58;;;;;;;18.67;13.15;;;;;;;;;;5005755;28;20357;-44
2024/03/12 03:35:25;;;;;;;17.63;12.70;;;;;;;;;;5005694;28;20289;-41
2024/03/12 03:37:52;;;;;;;15.95;13.27;;;;;;;;;;5006110;28;20030;-35
2024/03/12 03:40:22;;;;;;;16.20;13.00;;;;;;;;;;5005553;28;20137;-41
2024/03/12 03:42:50;;;;;;;16.67;13.10;;;;;;;;;;5006078;28;20303;-42
2024/03/12 03:45:18;;;;;;;15.73;13.05;;;;;;;;;;5005381;28;20366;-38
2024/03/12 03:47:44;;;;;;;18.60;13.63;;;;;;;;;;5005967;28;20035;-35
2024/03/12 03:50:11;;;;;;;21.60;13.95;;;;;;;;;;5005560;28;20026;-43
2024/03/12 03:52:38;;;;;;;16.85;13.48;;;;;;;;;;5005261;28;20030;-41
2024/03/12 03:55:06;;;;;;;15.65;13.63;;;;;;;;;;5005225;28;20038;-38
2024/03/12 03:57:33;;;;;;;17.55;13.30;;;;;;;;;;5005698;28;20253;-42
2024/03/12 04:00:12;;;;;;;19.02;13.48;;;;;;;;;;5005160;28;20021;-44
2024/03/12 04:02:39;;;;;;;18.30;13.68;;;;;;;;;;5005660;28;20037;-43
2024/03/12 04:05:07;;;;;;;17.98;13.88;;;;;;;;;;5005149;28;20022;-43
2024/03/12 04:07:34;;;;;;;17.20;13.85;;;;;;;;;;5005467;28;20370;-39
2024/03/12 04:10:00;;;;;;;17.85;13.63;;;;;;;;;;5005451;28;20338;-39
2024/03/12 04:12:27;;;;;;;19.98;14.38;;;;;;;;;;5004982;28;20034;-35
2024/03/12 04:14:54;;;;;;;16.50;13.20;;;;;;;;;;5004739;28;20052;-35
2024/03/12 04:17:22;;;;;;;20.55;13.35;;;;;;;;;;5005485;28;20030;-35
2024/03/12 04:19:48;;;;;;;17.25;13.90;;;;;;;;;;5004929;28;20030;-36
2024/03/12 04:22:19;;;;;;;18.65;13.75;;;;;;;;;;5005093;28;20022;-41
2024/03/12 04:24:46;;;;;;;18.45;14.13;;;;;;;;;;5004982;28;20026;-35
2024/03/12 04:27:13;;;;;;;18.13;13.95;;;;;;;;;;5005108;28;20196;-37
2024/03/12 04:29:40;;;;;;;21.92;14.13;;;;;;;;;;5004624;28;20022;-38
2024/03/12 04:32:07;;;;;;;20.55;14.00;;;;;;;;;;5004336;28;20076;-35
2024/03/12 04:34:33;;;;;;;20.65;13.52;;;;;;;;;;5004647;28;20029;-35
2024/03/12 04:37:00;;;;;;;15.93;13.38;;;;;;;;;;5004793;28;20085;-43
2024/03/12 04:39:30;;;;;;;17.33;14.07;;;;;;;;;;5004418;28;20022;-40
2024/03/12 04:42:06;;;;;;;20.80;14.05;;;;;;;;;;5004622;28;20026;-47
2024/03/12 04:44:33;;;;;;;16.17;13.77;;;;;;;;;;5004597;28;20340;-47
2024/03/12 04:47:00;;;;;;;20.55;14.27;;;;;;;;;;5004894;28;20084;-42
2024/03/12 04:49:26;;;;;;;22.08;14.50;;;;;;;;;;5004644;28;20033;-46
2024/03/12 04:51:53;;;;;;;18.45;14.18;;;;;;;;;;5004808;28;20034;-45
2024/03/12 04:54:20;;;;;;;16.63;13.35;;;;;;;;;;5004430;28;20045;-46
2024/03/12 04:56:47;;;;;;;18.50;14.27;;;;;;;;;;5004749;28;20038;-47
2024/03/12 04:59:16;;;;;;;17.35;14.15;;;;;;;;;;5004587;28;20053;-44
2024/03/12 05:01:48;;;;;;;17.70;14.23;;;;;;;;;;5004598;28;20029;-52
2024/03/12 05:04:16;;;;;;;20.20;14.07;;;;;;;;;;5004180;28;20213;-42
2024/03/12 05:06:43;;;;;;;20.98;14.38;;;;;;;;;;5004474;28;20038;-45
2024/03/12 05:09:10;;;;;;;20.85;14.93;;;;;;;;;;5004329;28;20061;-45
2024/03/12 05:11:36;;;;;;;20.35;14.35;;;;;;;;;;5004380;28;20030;-46
2024/03/12 05:14:07;;;;;;;16.92;14.05;;;;;;;;;;5004246;28;20085;-49
2024/03/12 05:16:34;;;;;;;18.00;14.40;;;;;;;;;;4986946;28;20026;-45
2024/03/12 05:19:01;;;;;;;18.80;14.23;;;;;;;;;;5004094;28;20094;-43
2024/03/12 05:21:28;;;;;;;20.25;13.88;;;;;;;;;;5004319;28;20030;-36
2024/03/12 05:23:55;;;;;;;23.55;14.65;;;;;;;;;;5004166;28;20014;-38
2024/03/12 05:26:25;;;;;;;25.00;14.77;;;;;;;;;;5003875;28;20072;-44
2024/03/12 05:28:58;;;;;;;19.67;14.40;;;;;;;;;;5004107;28;20314;-40
2024/03/12 05:31:32;;;;;;;18.63;14.32;;;;;;;;;;5004351;28;20093;-40
2024/03/12 05:34:02;;;;;;;19.83;15.00;;;;;;;;;;5004225;28;20038;-36
2024/03/12 05:36:30;;;;;;;17.27;14.27;;;;;;;;;;5004190;28;20352;-34
2024/03/12 05:39:04;;;;;;;53.10;16.60;;;;;;;;;;5004099;28;20076;-38
2024/03/12 05:41:48;;;;;;;22.75;14.85;;;;;;;;;;5003972;28;20051;-39
2024/03/12 05:49:45;;;;;;;20.90;14.60;;;;;;;;;;5007699;28;20357;-39
2024/03/12 05:52:12;;;;;;;17.98;14.70;;;;;;;;;;5008093;28;20380;-35
2024/03/12 05:54:40;;;;;;;17.38;15.05;;;;;;;;;;5007528;28;20031;-35
2024/03/12 05:57:06;;;;;;;19.05;14.07;;;;;;;;;;5007755;28;20065;-34
2024/03/12 05:59:33;;;;;;;23.40;14.68;;;;;;;;;;5007592;28;20053;-38
2024/03/12 06:02:00;;;;;;;25.45;15.15;;;;;;;;;;5007847;28;20245;-39
2024/03/12 06:04:31;;;;;;;19.15;15.20;;;;;;;;;;5007354;28;20317;-49
2024/03/12 06:07:00;;;;;;;20.65;14.77;;;;;;;;;;5007838;28;20060;-44
2024/03/12 06:09:28;;;;;;;19.33;15.05;;;;;;;;;;5007228;28;20034;-39
2024/03/12 06:11:54;;;;;;;15.85;14.20;;;;;;;;;;5007338;28;20038;-44
2024/03/12 06:14:25;;;;;;;21.65;15.05;;;;;;;;;;5007185;28;20030;-45
2024/03/12 06:16:52;;;;;;;19.95;15.00;;;;;;;;;;5007301;28;20036;-45
2024/03/12 06:19:19;;;;;;;18.45;14.60;;;;;;;;;;5007261;28;20018;-45
2024/03/12 06:21:46;;;;;;;21.00;15.70;;;;;;;;;;5007484;28;20028;-41
2024/03/12 06:24:12;;;;;;;16.88;14.63;;;;;;;;;;5007044;28;20025;-43
2024/03/12 06:26:39;;;;;;;16.85;15.02;;;;;;;;;;5007383;28;20022;-38
2024/03/12 06:29:06;;;;;;;16.65;14.82;;;;;;;;;;5007112;28;20072;-42
2024/03/12 06:31:34;;;;;;;20.17;14.80;;;;;;;;;;5007034;28;20026;-45
2024/03/12 06:34:01;;;;;;;20.23;14.98;;;;;;;;;;5006829;28;20018;-49
2024/03/12 06:36:28;;;;;;;17.23;15.20;;;;;;;;;;5007022;28;20310;-43
2024/03/12 06:38:55;;;;;;;20.20;15.77;;;;;;;;;;5006947;28;20026;-44
2024/03/12 06:41:24;;;;;;;19.85;15.15;;;;;;;;;;5006764;28;20042;-44
2024/03/12 06:43:50;;;;;;;16.98;15.18;;;;;;;;;;5006965;28;20306;-41
2024/03/12 06:46:19;;;;;;;22.33;14.73;;;;;;;;;;5006730;28;20069;-48
2024/03/12 06:48:49;;;;;;;19.30;15.85;;;;;;;;;;5006663;28;20065;-47
2024/03/12 06:51:15;;;;;;;18.67;15.45;;;;;;;;;;5006653;28;20042;-44
2024/03/12 06:53:44;;;;;;;17.95;14.80;;;;;;;;;;5006417;28;20014;-46
2024/03/12 06:56:11;;;;;;;19.17;15.70;;;;;;;;;;5005592;28;20086;-35
2024/03/12 06:58:44;;;;;;;19.73;15.80;;;;;;;;;;5006430;28;20029;-38
2024/03/12 07:01:13;;;;;;;19.13;15.70;;;;;;;;;;5006334;28;20030;-38
2024/03/12 07:03:40;;;;;;;18.38;15.98;;;;;;;;;;5006404;28;20018;-36
2024/03/12 07:06:09;;;;;;;20.77;15.13;;;;;;;;;;5006343;28;20036;-35
2024/03/12 07:08:39;;;;;;;19.35;16.00;;;;;;;;;;5006121;28;20018;-40
2024/03/12 07:11:07;;;;;;;21.92;16.25;;;;;;;;;;5006327;28;20030;-35
2024/03/12 07:13:34;;;;;;;19.50;15.13;;;;;;;;;;5006030;28;20049;-39
2024/03/12 07:16:03;;;;;;;17.58;15.10;;;;;;;;;;5006166;28;20092;-38
2024/03/12 07:18:29;;;;;;;16.95;15.10;;;;;;;;;;5006160;28;20046;-42
2024/03/12 07:20:56;;;;;;;18.05;14.73;;;;;;;;;;5006059;28;20026;-43
2024/03/12 07:23:22;;;;;;;20.33;15.77;;;;;;;;;;5006155;28;20022;-40
2024/03/12 07:25:49;;;;;;;16.88;14.95;;;;;;;;;;5006072;28;20018;-39
2024/03/12 07:28:16;;;;;;;23.15;16.33;;;;;;;;;;5005969;28;20030;-38
2024/03/12 07:30:45;;;;;;;18.70;15.27;;;;;;;;;;5005735;28;20154;-42
2024/03/12 07:33:12;;;;;;;17.75;15.73;;;;;;;;;;5005770;28;20046;-49
2024/03/12 07:35:39;;;;;;;16.58;14.55;;;;;;;;;;5005652;28;20323;-38
2024/03/12 07:38:06;;;;;;;18.02;15.05;;;;;;;;;;5005834;28;20064;-38
2024/03/12 07:40:34;;;;;;;17.27;15.48;;;;;;;;;;5005309;28;20053;-38
2024/03/12 07:43:00;;;;;;;18.45;15.15;;;;;;;;;;5005887;28;20030;-35
2024/03/12 07:45:27;;;;;;;16.60;14.63;;;;;;;;;;5005508;28;20025;-38
2024/03/12 07:47:54;;;;;;;23.63;15.48;;;;;;;;;;5006028;28;20094;-37
2024/03/12 07:50:21;;;;;;;16.75;14.88;;;;;;;;;;5005545;28;20318;-39
2024/03/12 07:52:48;;;;;;;18.23;14.73;;;;;;;;;;5005754;28;20033;-43
2024/03/12 07:55:14;;;;;;;20.17;16.10;;;;;;;;;;5005284;28;20030;-43
2024/03/12 07:57:41;;;;;;;17.83;14.60;;;;;;;;;;5005844;28;20034;-40
2024/03/12 08:00:16;;;;;;;19.65;15.77;;;;;;;;;;5005210;28;20046;-40
2024/03/12 08:02:42;;;;;;;18.45;15.10;;;;;;;;;;5005717;28;20293;-40
2024/03/12 08:05:10;;;;;;;19.13;15.57;;;;;;;;;;5005292;28;20080;-46
2024/03/12 08:07:37;;;;;;;19.13;15.20;;;;;;;;;;5004559;28;20378;-40
2024/03/12 08:10:05;;;;;;;22.02;15.80;;;;;;;;;;5005196;28;20345;-41
2024/03/12 08:12:32;;;;;;;21.83;15.65;;;;;;;;;;5005557;28;20026;-45
2024/03/12 08:14:59;;;;;;;18.42;16.15;;;;;;;;;;5005146;28;20066;-47
2024/03/12 08:17:26;;;;;;;17.88;16.00;;;;;;;;;;5005446;28;20034;-37
2024/03/12 08:19:53;;;;;;;19.13;16.35;;;;;;;;;;5004997;28;20030;-39
2024/03/12 08:22:19;;;;;;;20.00;16.40;;;;;;;;;;5005117;28;20057;-35
2024/03/12 08:24:46;;;;;;;19.15;15.45;;;;;;;;;;5004856;28;20046;-34
2024/03/12 08:27:13;;;;;;;17.88;15.10;;;;;;;;;;5005151;28;20249;-35
2024/03/12 08:29:39;;;;;;;22.33;16.67;;;;;;;;;;5004628;28;20258;-35
2024/03/12 08:32:06;;;;;;;18.17;15.40;;;;;;;;;;5005018;28;20026;-38
2024/03/12 08:34:32;;;;;;;19.98;16.17;;;;;;;;;;5004677;28;20214;-42
2024/03/12 08:37:00;;;;;;;20.45;15.18;;;;;;;;;;5004846;28;20234;-36
2024/03/12 08:39:27;;;;;;;18.80;15.48;;;;;;;;;;5004425;28;20273;-38
2024/03/12 08:41:54;;;;;;;20.00;15.68;;;;;;;;;;5004522;28;20026;-35
2024/03/12 08:44:21;;;;;;;20.80;15.25;;;;;;;;;;5004407;28;20029;-35
2024/03/12 08:46:49;;;;;;;20.50;15.60;;;;;;;;;;5004780;28;20068;-42
2024/03/12 08:49:16;;;;;;;17.92;15.32;;;;;;;;;;5004502;28;20034;-41
2024/03/12 08:51:43;;;;;;;17.90;14.77;;;;;;;;;;5004659;28;20381;-42
2024/03/12 08:54:09;;;;;;;18.40;16.10;;;;;;;;;;5004419;28;20207;-38
2024/03/12 08:56:36;;;;;;;25.15;16.20;;;;;;;;;;5004669;28;20026;-41
2024/03/12 08:59:04;;;;;;;21.55;15.43;;;;;;;;;;5004270;28;20117;-45
2024/03/12 09:01:34;;;;;;;17.25;15.43;;;;;;;;;;5004493;28;20045;-39
2024/03/12 09:04:02;;;;;;;18.00;15.82;;;;;;;;;;5004447;28;20018;-39
2024/03/12 09:06:32;;;;;;;18.45;16.13;;;;;;;;;;5004335;28;20022;-41
2024/03/12 09:08:58;;;;;;;18.60;15.60;;;;;;;;;;5004252;28;20022;-40
2024/03/12 09:11:25;;;;;;;21.83;16.23;;;;;;;;;;5004396;28;20027;-39
2024/03/12 09:13:52;;;;;;;20.50;15.45;;;;;;;;;;5004087;28;20258;-49
2024/03/12 09:16:18;;;;;;;16.73;14.88;;;;;;;;;;5004344;28;20206;-39
2024/03/12 09:18:45;;;;;;;21.23;16.35;;;;;;;;;;5006284;28;20041;-41
2024/03/12 09:21:12;;;;;;;20.92;16.15;;;;;;;;;;5008236;28;20023;-43
2024/03/12 09:23:40;;;;;;;20.98;16.65;;;;;;;;;;5008376;28;20029;-39
2024/03/12 09:26:07;;;;;;;23.23;17.00;;;;;;;;;;5008189;28;20093;-45
2024/03/12 09:28:36;;;;;;;23.13;16.73;;;;;;;;;;5008016;28;20218;-49
2024/03/12 09:31:08;;;;;;;19.50;16.35;;;;;;;;;;5008109;28;20026;-47
2024/03/12 09:33:34;;;;;;;;;;;;;;;;;;5008394;28;20217;-41
2024/03/12 09:36:03;;;;;;;19.63;16.00;;;;;;;;;;5007855;28;19984;-43
2024/03/12 09:38:30;;;;;;;18.30;16.00;;;;;;;;;;5007927;28;20022;-43
2024/03/12 09:40:59;;;;;;;22.95;16.67;;;;;;;;;;5007662;28;20058;-48
2024/03/12 09:43:28;;;;;;;20.25;16.38;;;;;;;;;;5007843;28;20018;-52
2024/03/12 09:45:54;;;;;;;20.65;16.63;;;;;;;;;;5007758;28;20089;-43
2024/03/12 09:48:21;;;;;;;18.85;16.85;;;;;;;;;;5007971;28;20023;-45
2024/03/12 09:50:51;;;;;;;19.27;16.77;;;;;;;;;;5007705;28;20031;-40
2024/03/12 09:53:18;;;;;;;19.60;17.08;;;;;;;;;;5007745;28;20029;-43
2024/03/12 09:55:45;;;;;;;20.75;17.20;;;;;;;;;;5007427;28;20026;-45
2024/03/12 09:58:11;;;;;;;19.77;16.42;;;;;;;;;;5007623;28;20311;-35
2024/03/12 10:00:38;;;;;;;23.60;16.88;;;;;;;;;;5007530;28;20026;-42
2024/03/12 10:03:05;;;;;;;22.40;17.25;;;;;;;;;;5007475;28;20022;-43
2024/03/12 10:05:33;;;;;;;19.92;17.60;;;;;;;;;;5007304;28;20072;-39
2024/03/12 10:08:12;;;;;;;22.25;17.42;;;;;;;;;;5007536;28;20033;-39
2024/03/12 10:10:49;;;;;;;23.38;16.48;;;;;;;;;;5007346;28;20022;-42
2024/03/12 10:13:17;;;;;;;25.58;17.23;;;;;;;;;;5007391;28;20085;-46
2024/03/12 10:15:59;;;;;;;23.15;17.25;;;;;;;;;;5007028;28;20026;-41
2024/03/12 10:18:30;;;;;;;21.40;16.65;;;;;;;;;;5007163;28;20082;-46
2024/03/12 10:20:57;;;;;;;21.05;16.75;;;;;;;;;;5007565;28;20027;-42
2024/03/12 10:23:25;;;;;;;24.05;16.65;;;;;;;;;;5007230;28;20026;-40
2024/03/12 10:25:52;;;;;;;25.35;16.60;;;;;;;;;;5007053;28;20369;-41
2024/03/12 10:28:26;;;;;;;24.27;16.38;;;;;;;;;;5007012;28;20022;-41
2024/03/12 10:30:53;;;;;;;23.52;17.88;;;;;;;;;;5005870;28;20041;-45
2024/03/12 10:33:21;;;;;;;24.33;17.38;;;;;;;;;;5007053;28;20211;-42
2024/03/12 10:35:50;;;;;;;27.77;17.35;;;;;;;;;;5006695;28;20026;-45
2024/03/12 10:38:31;;;;;;;25.90;17.58;;;;;;;;;;5006836;28;20022;-43
2024/03/12 10:40:58;;;;;;;24.33;18.38;;;;;;;;;;5006839;28;20124;-35
2024/03/12 10:43:25;;;;;;;28.90;18.15;;;;;;;;;;5006759;28;20045;-36
2024/03/12 10:45:54;;;;;;;27.13;18.40;;;;;;;;;;5006708;28;20042;-38
2024/03/12 10:48:21;;;;;;;28.63;18.13;;;;;;;;;;5006555;28;20022;-41
2024/03/12 10:50:51;;;;;;;26.65;18.50;;;;;;;;;;5006565;28;20030;-36
2024/03/12 10:53:18;;;;;;;31.50;18.45;;;;;;;;;;5006574;28;20022;-40
2024/03/12 10:55:45;;;;;;;34.00;18.70;;;;;;;;;;5006301;28;20042;-42
2024/03/12 10:58:14;;;;;;;28.27;17.67;;;;;;;;;;5006494;28;20076;-40
2024/03/12 11:00:40;;;;;;;30.45;18.95;;;;;;;;;;5006441;28;20018;-42
2024/03/12 11:03:11;;;;;;;29.02;18.65;;;;;;;;;;5006333;28;20018;-44
2024/03/12 11:05:39;;;;;;;29.15;17.77;;;;;;;;;;5006347;28;20022;-39
2024/03/12 11:08:09;;;;;;;32.20;18.80;;;;;;;;;;5006625;28;20089;-40
2024/03/12 11:10:36;;;;;;;28.85;18.02;;;;;;;;;;5005966;28;20026;-39
2024/03/12 11:13:07;;;;;;;26.73;18.48;;;;;;;;;;5006199;28;20026;-39
2024/03/12 11:15:35;;;;;;;32.42;18.08;;;;;;;;;;5005998;28;20085;-38
2024/03/12 11:18:02;;;;;;;36.00;18.27;;;;;;;;;;5005950;28;20026;-37
2024/03/12 11:20:28;;;;;;;25.17;17.58;;;;;;;;;;5006092;28;20343;-40
2024/03/12 11:23:00;;;;;;;29.60;18.05;;;;;;;;;;5006546;28;20089;-40
2024/03/12 11:25:27;;;;;;;32.90;19.02;;;;;;;;;;5005929;28;20219;-40
2024/03/12 11:28:12;;;;;;;31.75;19.15;;;;;;;;;;5006378;28;20027;-40
2024/03/12 11:30:45;;;;;;;32.38;18.48;;;;;;;;;;5005757;28;20030;-38
2024/03/12 11:33:33;;;;;;;29.23;18.92;;;;;;;;;;5005868;28;20022;-41
2024/03/12 11:36:00;;;;;;;32.13;18.98;;;;;;;;;;5005500;28;20030;-41
2024/03/12 11:38:35;;;;;;;30.65;19.80;;;;;;;;;;5005763;28;20033;-42
2024/03/12 11:41:03;;;;;;;29.50;19.40;;;;;;;;;;5005096;28;20058;-42
2024/03/12 11:43:39;;;;;;;28.58;19.33;;;;;;;;;;5005580;28;20018;-43
2024/03/12 11:46:09;;;;;;;35.78;19.48;;;;;;;;;;5005599;28;20077;-42
2024/03/12 11:48:37;;;;;;;32.95;19.15;;;;;;;;;;5005425;28;20042;-42
2024/03/12 11:51:04;;;;;;;28.08;19.05;;;;;;;;;;5005514;28;20033;-41
2024/03/12 11:53:32;;;;;;;24.85;18.63;;;;;;;;;;5005422;28;20088;-42
2024/03/12 11:56:00;;;;;;;32.92;19.58;;;;;;;;;;5005323;28;20257;-41
2024/03/12 11:58:31;;;;;;;32.10;19.30;;;;;;;;;;5005334;28;20082;-45
2024/03/12 12:01:02;;;;;;;36.45;19.35;;;;;;;;;;5005289;28;20026;-45
2024/03/12 12:03:28;;;;;;;37.92;19.73;;;;;;;;;;5005365;28;20187;-42
2024/03/12 12:05:55;;;;;;;34.53;20.10;;;;;;;;;;5005235;28;20306;-43
2024/03/12 12:08:23;;;;;;;37.28;19.75;;;;;;;;;;5005347;28;20042;-45
2024/03/12 12:11:00;;;;;;;38.42;20.27;;;;;;;;;;5005171;28;20101;-45
2024/03/12 12:13:27;;;;;;;34.35;20.27;;;;;;;;;;5005051;28;20038;-39
2024/03/12 12:15:57;;;;;;;33.03;20.35;;;;;;;;;;5004884;28;20030;-41
2024/03/12 12:18:25;;;;;;;35.95;19.80;;;;;;;;;;5005092;28;20065;-41
2024/03/12 12:20:53;;;;;;;37.83;19.55;;;;;;;;;;5005011;28;20042;-46
2024/03/12 12:23:20;;;;;;;34.60;20.33;;;;;;;;;;5004765;28;20081;-44
2024/03/12 12:25:47;;;;;;;31.08;19.38;;;;;;;;;;5004864;28;20263;-44
2024/03/12 12:28:14;;;;;;;34.47;19.08;;;;;;;;;;5004804;28;20022;-47
2024/03/12 12:30:44;;;;;;;30.50;20.08;;;;;;;;;;5004598;28;20018;-42
2024/03/12 12:33:13;;;;;;;38.22;19.60;;;;;;;;;;5004628;28;20030;-36
2024/03/12 12:35:41;;;;;;;48.83;21.42;;;;;;;;;;5004498;28;20267;-37
2024/03/12 12:38:10;;;;;;;38.60;19.02;;;;;;;;;;5004650;28;20383;-34
2024/03/12 12:40:38;;;;;;;41.78;20.23;;;;;;;;;;5004430;28;20062;-34
2024/03/12 12:43:07;;;;;;;47.60;19.50;;;;;;;;;;5004507;28;20326;-34
2024/03/12 12:45:34;;;;;;;40.30;20.63;;;;;;;;;;5004561;28;20057;-34
2024/03/12 12:48:04;;;;;;;40.92;19.65;;;;;;;;;;5004708;28;20030;-38
2024/03/12 12:50:35;;;;;;;37.80;20.10;;;;;;;;;;5004228;28;20065;-35
2024/03/12 12:53:04;;;;;;;33.67;19.20;;;;;;;;;;5003747;28;20041;-37
2024/03/12 12:55:31;;;;;;;37.80;18.40;;;;;;;;;;5004351;28;20053;-34
2024/03/12 12:57:58;;;;;;;26.50;18.63;;;;;;;;;;5004257;28;20027;-34
2024/03/12 13:00:25;;;;;;;51.55;20.00;;;;;;;;;;5004353;28;20019;-39
2024/03/12 13:02:51;;;;;;;40.08;19.73;;;;;;;;;;5004808;28;20037;-35
2024/03/12 13:05:22;;;;;;;42.45;19.25;;;;;;;;;;5004192;28;20069;-34
2024/03/12 13:07:52;;;;;;;34.97;18.60;;;;;;;;;;5005055;28;20033;-34
2024/03/12 13:10:19;;;;;;;32.75;18.08;;;;;;;;;;5004345;28;20265;-34
2024/03/12 13:12:46;;;;;;;33.17;18.25;;;;;;;;;;5004540;28;20026;-43
2024/03/12 13:15:36;;;;;;;33.42;18.92;;;;;;;;;;5004117;28;20033;-34
2024/03/12 13:18:04;;;;;;;32.80;18.70;;;;;;;;;;5004339;28;20029;-41
2024/03/12 13:20:31;;;;;;;29.80;19.08;;;;;;;;;;5004167;28;20214;-36
2024/03/12 13:22:57;;;;;;;31.08;18.13;;;;;;;;;;5004068;28;20093;-40
2024/03/12 13:25:24;;;;;;;28.90;18.95;;;;;;;;;;5004023;28;20022;-38
2024/03/12 13:27:51;;;;;;;26.30;18.25;;;;;;;;;;5003913;28;20052;-35
2024/03/12 13:30:17;;;;;;;29.50;18.38;;;;;;;;;;5004106;28;20030;-38
2024/03/12 13:32:45;;;;;;;28.45;18.50;;;;;;;;;;5004597;28;20026;-36
2024/03/12 13:35:12;;;;;;;29.45;18.88;;;;;;;;;;5003951;28;20030;-47
2024/03/12 13:37:39;;;;;;;30.35;19.25;;;;;;;;;;5004483;28;20026;-36
2024/03/12 13:40:06;;;;;;;32.25;19.55;;;;;;;;;;5003663;28;20042;-35
2024/03/12 13:42:35;;;;;;;34.45;18.95;;;;;;;;;;5004408;28;20089;-36
2024/03/12 13:45:01;;;;;;;34.10;18.45;;;;;;;;;;5003992;28;20032;-42
2024/03/12 13:47:32;;;;;;;29.85;18.05;;;;;;;;;;5004266;28;20054;-36
2024/03/12 13:50:00;;;;;;;29.88;18.48;;;;;;;;;;5003901;28;20314;-43
2024/03/12 13:52:27;;;;;;;34.60;18.67;;;;;;;;;;5004293;28;20077;-37
2024/03/12 13:54:54;;;;;;;40.85;18.73;;;;;;;;;;5003685;28;20031;-42
2024/03/12 13:57:24;;;;;;;37.58;19.38;;;;;;;;;;5004297;28;20204;-39
2024/03/12 13:59:51;;;;;;;33.58;18.42;;;;;;;;;;5003841;28;20061;-47
2024/03/12 14:02:20;;;;;;;28.75;18.52;;;;;;;;;;5004056;28;20027;-43
2024/03/12 14:04:49;;;;;;;28.73;18.60;;;;;;;;;;5005975;28;20026;-37
2024/03/12 14:07:18;;;;;;;32.90;18.50;;;;;;;;;;5007803;28;20242;-43
2024/03/12 14:09:48;;;;;;;32.05;18.88;;;;;;;;;;5007378;28;20022;-43
2024/03/12 14:12:15;;;;;;;29.10;18.17;;;;;;;;;;5007708;28;20034;-40
2024/03/12 14:14:41;;;;;;;28.77;18.67;;;;;;;;;;5007095;28;20033;-49
2024/03/12 14:17:09;;;;;;;27.63;19.05;;;;;;;;;;5007539;28;20065;-41
2024/03/12 14:19:36;;;;;;;28.20;19.17;;;;;;;;;;5007222;28;20018;-42
2024/03/12 14:22:03;;;;;;;30.88;19.13;;;;;;;;;;5007423;28;20045;-39
2024/03/12 14:24:30;;;;;;;25.67;19.00;;;;;;;;;;5007123;28;20022;-43
2024/03/12 14:26:57;;;;;;;26.27;18.50;;;;;;;;;;5007377;28;20034;-43
2024/03/12 14:29:23;;;;;;;30.95;18.92;;;;;;;;;;5006901;28;20022;-44